Time;durP1;ratioP1;P1;durP2;ratioP2;P2;SDS_P1;SDS_P2;PMS_P1;PMS_P2;Temp;Humidity;BMP_temperature;BMP_pressure;BME280_temperature;BME280_humidity;BME280_pressure;Samples;Min_cycle;Max_cycle;Signal;HPM_P1;HPM_P2
2022/09/25 00:01:10;;;;;;;0.30;0.20;;;14.60;99.90;;;15.56;95.34;100274.28;4993756;28;20609;-67
2022/09/25 00:03:37;;;;;;;0.30;0.30;;;14.60;99.90;;;15.57;95.07;100270.69;5011172;28;20653;-67
2022/09/25 00:06:21;;;;;;;0.30;0.30;;;14.60;99.90;;;15.51;95.40;100267.66;5012830;28;20653;-66
2022/09/25 00:08:48;;;;;;;0.30;0.30;;;14.60;99.90;;;15.41;96.08;100269.50;5010708;28;20642;-67
2022/09/25 00:11:19;;;;;;;0.30;0.30;;;14.50;99.90;;;15.37;96.49;100268.16;5010270;28;21187;-67
2022/09/25 00:13:46;;;;;;;0.30;0.30;;;14.50;99.90;;;15.41;96.58;100272.16;5011685;28;21037;-66
2022/09/25 00:16:22;;;;;;;0.30;0.30;;;14.50;99.90;;;15.38;96.52;100275.06;4993525;28;20613;-67
2022/09/25 00:21:36;;;;;;;0.30;0.30;;;14.50;99.90;;;15.41;95.88;100277.41;5011342;28;21247;-68
2022/09/25 00:24:08;;;;;;;0.30;0.30;;;14.50;99.90;;;15.39;95.92;100271.47;4993046;28;20622;-65
2022/09/25 00:26:39;;;;;;;0.30;0.23;;;14.50;99.90;;;15.37;96.29;100270.78;4994223;28;21100;-67
2022/09/25 00:29:09;;;;;;;15.43;4.23;;;14.50;99.90;;;15.40;95.96;100267.84;5010622;28;20665;-67
2022/09/25 00:31:36;;;;;;;0.30;0.30;;;14.50;99.90;;;15.44;95.54;100263.97;4992269;28;20634;-67
2022/09/25 00:34:04;;;;;;;0.40;0.40;;;14.50;99.90;;;15.44;95.17;100261.34;4993280;28;20622;-66
2022/09/25 00:36:32;;;;;;;0.30;0.30;;;14.50;99.90;;;15.43;96.12;100253.63;4992894;28;21229;-65
2022/09/25 00:38:59;;;;;;;0.30;0.30;;;14.50;99.90;;;15.41;96.71;100259.00;5010622;28;20634;-66
2022/09/25 00:41:30;;;;;;;0.30;0.30;;;14.50;99.90;;;15.37;97.11;100257.66;5011480;28;20691;-67
2022/09/25 00:44:00;;;;;;;0.30;0.30;;;14.50;99.90;;;15.45;96.17;100256.91;5011983;28;20618;-67
2022/09/25 00:46:40;;;;;;;0.30;0.20;;;14.50;99.90;;;15.38;96.53;100256.66;4993870;28;20662;-66
2022/09/25 00:49:18;;;;;;;0.60;0.60;;;14.50;99.90;;;15.38;95.67;100253.19;5011960;28;20634;-67
2022/09/25 00:51:53;;;;;;;0.30;0.30;;;14.50;99.90;;;15.36;95.33;100252.53;5011113;28;20609;-67
2022/09/25 00:54:31;;;;;;;0.30;0.30;;;14.40;99.90;;;15.31;95.52;100257.41;5010026;28;20637;-66
2022/09/25 00:57:06;;;;;;;0.30;0.30;;;14.40;99.90;;;15.34;93.65;100255.31;5009893;28;21239;-67
2022/09/25 00:59:39;;;;;;;0.30;0.23;;;14.40;99.90;;;15.30;94.41;100253.97;4993617;28;21268;-66
2022/09/25 01:02:12;;;;;;;0.50;0.50;;;14.30;99.90;;;15.30;94.54;100253.13;4992681;28;20638;-67
2022/09/25 01:04:45;;;;;;;0.30;0.30;;;14.40;99.90;;;15.24;94.76;100256.34;4993181;28;20717;-67
2022/09/25 01:07:13;;;;;;;0.67;0.67;;;14.30;99.90;;;15.24;94.71;100248.47;4992609;28;21221;-67
2022/09/25 01:09:40;;;;;;;0.30;0.20;;;14.30;99.90;;;15.23;94.36;100244.19;4994588;28;20788;-67
2022/09/25 01:12:08;;;;;;;0.30;0.20;;;14.30;99.90;;;15.17;95.09;100248.22;5010224;28;20704;-66
2022/09/25 01:14:36;;;;;;;0.30;0.30;;;14.30;99.90;;;15.22;94.21;100246.00;5010826;28;20610;-66
2022/09/25 01:17:31;;;;;;;0.30;0.30;;;14.30;99.90;;;15.20;94.58;100239.22;4977239;28;21172;-66
2022/09/25 01:20:46;;;;;;;0.30;0.30;;;14.30;99.90;;;15.20;94.80;100244.50;4993263;28;20657;-67
2022/09/25 01:23:42;;;;;;;0.30;0.30;;;14.30;99.90;;;15.22;95.52;100245.16;5000453;28;21046;-66
2022/09/25 01:26:47;;;;;;;0.30;0.30;;;14.30;99.90;;;15.19;95.10;100237.56;5013578;28;20668;-65
2022/09/25 01:29:32;;;;;;;0.30;0.30;;;14.30;99.90;;;15.22;95.10;100242.53;4997035;28;20648;-67
2022/09/25 01:32:26;;;;;;;0.30;0.30;;;14.30;99.90;;;15.17;95.65;100242.16;5014582;28;20622;-66
2022/09/25 01:35:25;;;;;;;0.30;0.23;;;14.30;99.90;;;15.15;95.83;100244.09;4998510;28;20613;-66
2022/09/25 01:38:14;;;;;;;0.30;0.30;;;14.30;99.90;;;15.09;96.58;100229.75;5012512;28;21234;-66
2022/09/25 01:41:01;;;;;;;0.30;0.30;;;14.30;99.90;;;15.15;96.89;100234.41;5010282;28;20654;-66
2022/09/25 01:43:36;;;;;;;0.30;0.30;;;14.30;99.90;;;15.14;96.30;100232.75;5014873;28;20660;-66
2022/09/25 01:46:20;;;;;;;0.30;0.20;;;14.30;99.90;;;15.20;95.62;100237.44;4980123;28;20673;-67
2022/09/25 01:48:54;;;;;;;0.30;0.30;;;14.30;99.90;;;15.17;96.24;100234.25;4996550;28;20652;-67
2022/09/25 01:51:40;;;;;;;0.30;0.30;;;14.30;99.90;;;15.20;95.85;100240.06;4996978;28;20617;-66
2022/09/25 01:54:14;;;;;;;0.30;0.30;;;14.30;99.90;;;15.24;96.08;100238.78;4997176;28;20688;-67
2022/09/25 01:56:55;;;;;;;0.30;0.30;;;14.30;99.90;;;15.27;95.77;100233.22;5014530;28;20667;-68
2022/09/25 01:59:37;;;;;;;0.30;0.30;;;14.30;99.90;;;15.29;96.59;100233.09;5013453;28;20691;-67
2022/09/25 02:02:08;;;;;;;0.30;0.30;;;14.40;99.90;;;15.24;96.68;100233.53;5014016;28;21018;-66
2022/09/25 02:04:59;;;;;;;0.30;0.23;;;14.40;99.90;;;15.19;96.87;100233.16;4997110;28;20637;-66
2022/09/25 02:07:34;;;;;;;0.73;0.73;;;14.30;99.90;;;15.24;96.04;100236.16;5013911;28;20657;-67
2022/09/25 02:10:10;;;;;;;0.30;0.27;;;14.30;99.90;;;15.24;96.21;100232.69;4997861;28;20653;-67
2022/09/25 02:12:45;;;;;;;0.30;0.30;;;14.30;99.90;;;15.26;95.81;100228.94;4996310;28;21051;-66
2022/09/25 02:15:31;;;;;;;0.30;0.30;;;14.30;99.90;;;15.24;95.72;100230.06;4989153;28;20708;-66
2022/09/25 02:21:02;;;;;;;0.30;0.20;;;14.30;99.90;;;15.08;96.01;100222.84;5014044;28;20641;-66
2022/09/25 02:23:50;;;;;;;0.30;0.20;;;14.20;99.90;;;15.00;96.05;100225.38;4996256;28;20648;-67
2022/09/25 02:26:31;;;;;;;0.30;0.30;;;14.20;99.90;;;14.97;96.22;100230.94;4994922;28;20726;-67
2022/09/25 02:28:59;;;;;;;1.00;0.97;;;14.20;99.90;;;14.95;95.65;100225.00;5008400;28;20661;-67
2022/09/25 02:31:39;;;;;;;0.30;0.20;;;14.10;99.90;;;15.01;96.14;100227.06;4995243;28;21193;-66
2022/09/25 02:34:07;;;;;;;0.30;0.23;;;14.10;99.90;;;14.96;96.95;100229.28;4994028;28;21040;-66
2022/09/25 02:36:42;;;;;;;0.30;0.20;;;14.10;99.90;;;14.92;96.76;100222.69;5013705;28;21207;-66
2022/09/25 02:39:10;;;;;;;0.30;0.30;;;14.10;99.90;;;14.99;96.36;100228.97;5013139;28;20703;-67
2022/09/25 02:42:19;;;;;;;0.30;0.20;;;14.10;99.90;;;14.94;96.66;100226.00;5013162;28;20692;-66
2022/09/25 02:45:06;;;;;;;0.30;0.27;;;14.10;99.90;;;14.83;97.86;100228.81;5013381;28;20617;-66
2022/09/25 02:47:54;;;;;;;0.30;0.30;;;14.00;99.90;;;14.74;98.06;100220.00;5004191;28;21264;-67
2022/09/25 02:50:49;;;;;;;0.30;0.20;;;14.00;99.90;;;14.77;98.24;100232.03;4989257;28;20637;-67
2022/09/25 02:53:42;;;;;;;0.30;0.20;;;14.00;99.90;;;14.71;98.62;100228.16;5011568;28;20633;-66
2022/09/25 02:56:27;;;;;;;0.30;0.20;;;14.00;99.90;;;14.72;99.21;100234.25;4995597;28;21184;-66
2022/09/25 02:59:00;;;;;;;0.30;0.30;;;14.00;99.90;;;14.70;98.73;100233.56;4993395;28;21071;-65
2022/09/25 03:01:31;;;;;;;0.30;0.30;;;14.00;99.90;;;14.71;98.86;100228.16;5012606;28;20622;-66
2022/09/25 03:03:59;;;;;;;0.30;0.30;;;13.90;99.90;;;14.83;97.77;100238.47;4994642;28;20648;-67
2022/09/25 03:06:29;;;;;;;0.30;0.30;;;13.90;99.90;;;14.84;97.72;100225.22;5013547;28;21287;-66
2022/09/25 03:08:57;;;;;;;0.30;0.20;;;14.00;99.90;;;14.83;97.90;100227.97;4996428;28;20649;-67
2022/09/25 03:11:25;;;;;;;0.30;0.30;;;13.90;99.90;;;14.80;97.86;100221.22;4994814;28;20642;-67
2022/09/25 03:14:01;;;;;;;0.30;0.20;;;13.90;99.90;;;14.74;97.54;100217.38;4995453;28;20724;-67
2022/09/25 03:16:50;;;;;;;0.30;0.20;;;13.90;99.90;;;14.76;97.90;100225.09;4994700;28;20612;-69
2022/09/25 03:19:21;;;;;;;0.30;0.20;;;13.90;99.90;;;14.78;97.76;100231.88;4991161;28;21226;-66
2022/09/25 03:21:48;;;;;;;0.30;0.20;;;13.90;99.90;;;14.78;96.93;100223.16;4994813;28;20705;-67
2022/09/25 03:24:15;;;;;;;0.30;0.30;;;13.90;99.90;;;14.71;97.68;100225.53;5012596;28;20676;-66
2022/09/25 03:26:43;;;;;;;0.30;0.30;;;13.90;99.90;;;14.72;97.79;100227.22;5012370;28;21299;-69
2022/09/25 03:29:13;;;;;;;0.30;0.30;;;13.90;99.90;;;14.54;99.22;100225.50;5009436;28;20697;-66
2022/09/25 03:31:41;;;;;;;0.30;0.30;;;13.80;99.90;;;14.65;98.58;100223.50;4995520;28;21024;-66
2022/09/25 03:34:10;;;;;;;0.30;0.20;;;13.90;99.90;;;14.55;99.42;100230.63;4992669;28;20630;-66
2022/09/25 03:36:37;;;;;;;0.30;0.30;;;13.80;99.90;;;14.64;99.15;100221.88;5011505;28;21017;-67
2022/09/25 03:39:05;;;;;;;0.30;0.20;;;13.80;99.90;;;14.49;99.42;100233.00;4993449;28;20658;-66
2022/09/25 03:41:34;;;;;;;0.30;0.30;;;13.80;99.90;;;14.42;100.00;100218.78;4994195;28;20618;-66
2022/09/25 03:44:01;;;;;;;0.30;0.20;;;13.70;99.90;;;14.35;100.00;100217.72;5008387;28;20689;-66
2022/09/25 03:46:31;;;;;;;0.30;0.30;;;13.70;99.90;;;14.38;100.00;100217.41;5010965;28;20668;-67
2022/09/25 03:48:59;;;;;;;0.30;0.30;;;13.70;99.90;;;14.38;100.00;100217.41;5011239;28;20673;-66
2022/09/25 03:51:27;;;;;;;0.30;0.30;;;13.70;99.90;;;14.31;100.00;100225.03;5011290;28;20636;-67
2022/09/25 03:53:55;;;;;;;0.30;0.20;;;13.70;99.90;;;14.44;100.00;100219.47;4994712;28;21035;-67
2022/09/25 03:56:25;;;;;;;0.30;0.20;;;13.70;99.90;;;14.43;100.00;100217.81;5010919;28;21127;-67
2022/09/25 03:58:53;;;;;;;0.30;0.30;;;13.70;99.90;;;14.48;100.00;100219.03;4993200;28;20654;-65
2022/09/25 04:01:21;;;;;;;0.30;0.30;;;13.70;99.90;;;14.49;100.00;100219.88;5011070;28;20641;-66
2022/09/25 04:03:49;;;;;;;3.43;2.00;;;13.70;99.90;;;14.46;100.00;100215.72;5010791;28;21000;-67
2022/09/25 04:06:21;;;;;;;0.30;0.30;;;13.70;99.90;;;14.47;100.00;100219.19;4993892;28;20618;-66
2022/09/25 04:08:49;;;;;;;0.30;0.30;;;13.70;99.90;;;14.55;100.00;100220.09;4993420;28;20653;-66
2022/09/25 04:11:18;;;;;;;0.30;0.30;;;13.70;99.90;;;14.58;100.00;100216.38;4995183;28;20712;-69
2022/09/25 04:13:45;;;;;;;0.30;0.30;;;13.70;99.90;;;14.66;100.00;100214.66;5011190;28;20706;-67
2022/09/25 04:16:15;;;;;;;0.30;0.30;;;13.80;99.90;;;14.61;100.00;100216.91;5011264;28;21165;-66
2022/09/25 04:18:42;;;;;;;0.30;0.30;;;13.70;99.90;;;14.68;99.71;100219.78;5011099;28;20672;-67
2022/09/25 04:21:11;;;;;;;0.30;0.30;;;13.80;99.90;;;14.60;100.00;100214.44;4994488;28;20622;-66
2022/09/25 04:23:39;;;;;;;0.30;0.30;;;13.80;99.90;;;14.62;99.73;100212.47;5009272;28;20613;-66
2022/09/25 04:26:07;;;;;;;0.30;0.30;;;13.80;99.90;;;14.58;100.00;100213.75;5009261;28;20605;-65
2022/09/25 04:28:35;;;;;;;0.30;0.30;;;13.80;99.90;;;14.64;99.24;100215.78;5008705;28;21224;-66
2022/09/25 04:31:02;;;;;;;0.40;0.40;;;13.80;99.90;;;14.64;100.00;100214.00;5010467;28;21206;-66
2022/09/25 04:33:45;;;;;;;0.30;0.20;;;13.80;99.90;;;14.53;100.00;100216.81;5009650;28;20630;-66
2022/09/25 04:36:14;;;;;;;0.30;0.20;;;13.80;99.90;;;14.62;100.00;100221.19;5010264;28;21169;-69
2022/09/25 04:38:41;;;;;;;0.30;0.20;;;13.80;99.90;;;14.64;99.96;100214.00;5009639;28;20638;-67
2022/09/25 04:41:08;;;;;;;0.30;0.30;;;13.80;99.90;;;14.66;99.74;100219.09;5012132;28;20609;-66
2022/09/25 04:43:35;;;;;;;0.30;0.20;;;13.90;99.90;;;14.62;99.58;100212.47;5010092;28;20633;-66
2022/09/25 04:46:10;;;;;;;0.30;0.30;;;13.90;99.90;;;14.61;99.60;100218.69;5011192;28;20854;-66
2022/09/25 04:48:45;;;;;;;0.30;0.27;;;13.80;99.90;;;14.61;99.52;100221.31;4993905;28;20727;-68
2022/09/25 04:51:12;;;;;;;0.30;0.20;;;13.90;99.90;;;14.52;100.00;100225.63;5012344;28;20605;-67
2022/09/25 04:53:39;;;;;;;0.30;0.30;;;13.80;99.90;;;14.53;100.00;100223.84;5011243;28;20625;-67
2022/09/25 04:56:08;;;;;;;0.30;0.20;;;13.80;99.90;;;14.52;100.00;100220.38;5011884;28;20950;-66
2022/09/25 04:58:48;;;;;;;0.30;0.30;;;13.80;99.90;;;14.53;100.00;100222.06;5008836;28;20673;-68
2022/09/25 05:01:18;;;;;;;0.30;0.30;;;13.80;99.90;;;14.51;100.00;100225.78;5010633;28;20640;-68
2022/09/25 05:03:52;;;;;;;0.30;0.30;;;13.70;99.90;;;14.45;100.00;100224.59;4992656;28;21078;-67
2022/09/25 05:06:21;;;;;;;0.30;0.30;;;13.70;99.90;;;14.56;100.00;100227.03;4991955;28;20996;-66
2022/09/25 05:08:48;;;;;;;0.30;0.30;;;13.80;99.90;;;14.54;100.00;100228.13;5010920;28;21018;-66
2022/09/25 05:11:15;;;;;;;0.30;0.30;;;13.80;99.90;;;14.60;100.00;100230.19;5010622;28;20628;-67
2022/09/25 05:13:42;;;;;;;0.30;0.30;;;13.80;99.90;;;14.52;100.00;100227.47;5012213;28;20649;-67
2022/09/25 05:16:09;;;;;;;0.30;0.20;;;13.80;99.90;;;14.58;100.00;100229.50;5009800;28;20688;-67
2022/09/25 05:18:36;;;;;;;0.30;0.30;;;13.80;99.90;;;14.53;100.00;100226.47;4992726;28;20729;-67
2022/09/25 05:21:04;;;;;;;0.30;0.20;;;13.80;99.90;;;14.57;100.00;100223.41;5009142;28;20638;-67
2022/09/25 05:23:31;;;;;;;0.30;0.30;;;13.80;99.90;;;14.62;100.00;100222.97;5000373;28;20630;-66
2022/09/25 05:26:00;;;;;;;0.30;0.30;;;13.80;99.90;;;14.75;100.00;100220.84;5010604;28;20671;-67
2022/09/25 05:28:31;;;;;;;0.30;0.20;;;13.90;99.90;;;14.70;100.00;100221.28;4991836;28;20658;-67
2022/09/25 05:31:02;;;;;;;0.80;0.80;;;13.90;99.90;;;14.61;100.00;100222.16;4992372;28;20606;-68
2022/09/25 05:33:34;;;;;;;0.30;0.20;;;13.90;99.90;;;14.62;100.00;100220.34;5009711;28;20629;-67
2022/09/25 05:36:06;;;;;;;0.30;0.30;;;13.90;99.90;;;14.64;100.00;100228.91;4993608;28;21243;-66
2022/09/25 05:38:35;;;;;;;1.67;1.57;;;13.80;99.90;;;14.70;100.00;100228.31;4992164;28;20664;-66
2022/09/25 05:41:07;;;;;;;0.30;0.30;;;13.90;99.90;;;14.68;100.00;100219.78;4992593;28;20618;-67
2022/09/25 05:43:39;;;;;;;0.30;0.30;;;13.90;99.90;;;14.73;100.00;100214.91;5008767;28;20641;-67
2022/09/25 05:46:06;;;;;;;0.30;0.30;;;13.90;99.90;;;14.73;100.00;100222.78;4992404;28;20614;-67
2022/09/25 05:48:33;;;;;;;0.30;0.30;;;13.90;99.90;;;14.76;99.99;100222.47;5001869;28;20669;-67
2022/09/25 05:51:00;;;;;;;0.30;0.27;;;13.90;99.90;;;14.80;100.00;100225.66;5009752;28;21259;-67
2022/09/25 05:53:29;;;;;;;0.30;0.30;;;13.90;99.90;;;14.67;100.00;100226.00;5009339;28;20614;-66
2022/09/25 05:55:59;;;;;;;0.30;0.30;;;13.90;99.90;;;14.73;100.00;100228.88;5011384;28;21045;-66
2022/09/25 05:58:28;;;;;;;0.30;0.30;;;13.90;99.90;;;14.76;99.74;100228.56;4991525;28;20637;-67
2022/09/25 06:01:02;;;;;;;0.30;0.23;;;13.90;99.90;;;14.80;99.75;100223.84;5007388;28;21085;-66
2022/09/25 06:03:30;;;;;;;0.30;0.30;;;13.90;99.90;;;14.84;99.95;100240.97;5009311;28;21277;-67
2022/09/25 06:06:01;;;;;;;0.30;0.30;;;14.00;99.90;;;14.87;99.17;100234.59;5010286;28;20958;-66
2022/09/25 06:08:34;;;;;;;0.30;0.20;;;14.00;99.90;;;14.88;99.22;100231.84;4992828;28;21295;-66
2022/09/25 06:11:02;;;;;;;0.30;0.30;;;14.00;99.90;;;14.92;98.83;100230.56;5013045;28;20671;-66
2022/09/25 06:13:33;;;;;;;0.30;0.20;;;14.00;99.90;;;14.95;98.89;100230.25;5013127;28;20633;-67
2022/09/25 06:16:00;;;;;;;0.30;0.20;;;14.00;99.90;;;14.96;98.96;100234.53;4997317;28;20617;-67
2022/09/25 06:18:27;;;;;;;0.30;0.20;;;14.10;99.90;;;15.03;98.61;100238.25;5012556;28;20637;-67
2022/09/25 06:21:01;;;;;;;0.30;0.30;;;14.10;99.90;;;14.94;99.31;100231.25;5012557;28;20664;-68
2022/09/25 06:23:28;;;;;;;0.30;0.30;;;14.00;99.90;;;14.94;99.13;100236.50;5013262;28;20863;-67
2022/09/25 06:26:04;;;;;;;0.30;0.20;;;14.10;99.90;;;14.97;98.76;100230.13;4996880;28;21176;-66
2022/09/25 06:28:31;;;;;;;0.30;0.20;;;14.10;99.90;;;14.90;99.26;100237.78;5013029;28;20666;-67
2022/09/25 06:31:00;;;;;;;0.30;0.20;;;14.10;99.90;;;15.04;98.60;100239.88;4994280;28;20641;-68
2022/09/25 06:33:27;;;;;;;0.30;0.30;;;14.10;99.90;;;14.97;99.11;100241.44;4996189;28;20625;-66
2022/09/25 06:35:54;;;;;;;0.30;0.20;;;14.20;99.90;;;14.83;100.00;100239.31;5013208;28;21066;-67
2022/09/25 06:38:21;;;;;;;0.30;0.30;;;14.10;99.90;;;14.95;99.64;100232.88;4996101;28;20618;-67
2022/09/25 06:40:48;;;;;;;0.30;0.30;;;14.10;99.90;;;15.04;99.65;100231.16;5014084;28;20684;-66
2022/09/25 06:43:15;;;;;;;0.30;0.30;;;14.20;99.90;;;15.01;98.82;100242.81;4995117;28;20637;-66
2022/09/25 06:45:43;;;;;;;0.30;0.20;;;14.20;99.90;;;15.02;99.21;100244.47;5013250;28;20699;-68
2022/09/25 06:48:15;;;;;;;0.30;0.30;;;14.20;99.90;;;15.01;98.88;100242.81;5012789;28;20669;-66
2022/09/25 06:50:51;;;;;;;0.30;0.30;;;14.20;99.90;;;15.07;98.34;100247.47;4995831;28;20653;-67
2022/09/25 06:53:21;;;;;;;0.30;0.30;;;14.20;99.90;;;15.14;97.93;100243.25;5012964;28;20617;-67
2022/09/25 06:55:49;;;;;;;0.30;0.30;;;14.30;99.90;;;15.22;96.71;100250.41;4996265;28;20645;-66
2022/09/25 06:58:22;;;;;;;0.30;0.30;;;14.30;99.90;;;15.10;97.00;100241.91;5013701;28;20685;-70
2022/09/25 07:00:51;;;;;;;0.30;0.30;;;14.30;99.90;;;15.11;97.34;100240.94;5012147;28;20691;-68
2022/09/25 07:06:07;;;;;;;0.30;0.30;;;14.30;99.90;;;15.20;96.65;100247.94;5010627;28;20633;-67
2022/09/25 07:08:34;;;;;;;0.30;0.20;;;14.40;99.90;;;15.36;95.61;100258.59;5011957;28;20662;-66
2022/09/25 07:11:01;;;;;;;0.30;0.30;;;14.50;99.90;;;15.28;95.98;100249.81;5012075;28;20688;-67
2022/09/25 07:13:32;;;;;;;0.30;0.20;;;14.50;99.90;;;15.38;95.59;100251.41;5011133;28;20648;-67
2022/09/25 07:16:02;;;;;;;0.30;0.20;;;14.50;99.90;;;15.32;95.72;100248.53;4995523;28;20621;-66
2022/09/25 07:18:30;;;;;;;0.30;0.30;;;14.50;99.90;;;15.40;95.85;100249.44;5012270;28;20704;-69
2022/09/25 07:21:07;;;;;;;0.30;0.30;;;14.50;99.90;;;15.49;95.12;100245.13;4994295;28;20650;-66
2022/09/25 07:23:35;;;;;;;0.30;0.30;;;14.70;99.90;;;15.79;93.71;100251.78;5008476;28;21194;-67
2022/09/25 07:26:08;;;;;;;0.30;0.30;;;14.80;99.90;;;15.96;91.47;100251.75;5012719;28;20617;-69
2022/09/25 07:28:37;;;;;;;0.30;0.30;;;15.00;99.90;;;16.04;91.88;100251.81;5007932;28;20698;-68
2022/09/25 07:31:18;;;;;;;0.30;0.20;;;15.10;99.90;;;16.15;90.47;100253.34;5012971;28;20618;-68
2022/09/25 07:33:46;;;;;;;0.30;0.30;;;15.20;99.90;;;16.15;90.06;100256.00;4993688;28;20673;-67
2022/09/25 07:36:15;;;;;;;0.30;0.30;;;15.20;99.90;;;16.12;90.33;100265.00;5010478;28;21244;-67
2022/09/25 07:38:44;;;;;;;0.30;0.30;;;15.20;99.90;;;16.10;90.49;100251.19;5010590;28;20700;-67
2022/09/25 07:41:12;;;;;;;0.30;0.30;;;15.20;99.90;;;16.23;90.67;100256.88;4995539;28;20656;-69
2022/09/25 07:43:42;;;;;;;0.30;0.20;;;15.30;99.90;;;16.22;89.92;100249.13;4994568;28;20665;-66
2022/09/25 07:46:10;;;;;;;0.30;0.30;;;15.30;99.90;;;16.14;89.98;100257.00;5011774;28;21209;-66
2022/09/25 07:48:37;;;;;;;0.30;0.30;;;15.30;99.90;;;16.15;90.78;100256.00;5009324;28;21276;-67
2022/09/25 07:51:07;;;;;;;0.30;0.30;;;15.20;99.90;;;16.20;90.16;100256.38;5010473;28;21255;-67
2022/09/25 07:53:33;;;;;;;0.30;0.30;;;15.30;99.90;;;16.09;90.49;100261.88;5011651;28;20622;-68
2022/09/25 07:56:01;;;;;;;0.30;0.30;;;15.20;99.90;;;16.11;90.77;100265.19;4979542;28;21244;-68
2022/09/25 07:58:34;;;;;;;0.30;0.30;;;15.20;99.90;;;16.13;90.41;100260.59;4976652;28;20626;-66
2022/09/25 08:01:04;;;;;;;0.30;0.30;;;15.20;99.90;;;16.05;89.75;100258.75;5011225;28;20728;-67
2022/09/25 08:03:32;;;;;;;0.30;0.30;;;15.20;99.90;;;16.27;88.85;100257.38;5010495;28;20638;-66
2022/09/25 08:06:01;;;;;;;0.93;0.93;;;15.20;99.90;;;16.29;89.09;100264.13;4993436;28;20637;-66
2022/09/25 08:08:29;;;;;;;0.30;0.30;;;15.30;99.90;;;16.35;88.71;100257.44;5011536;28;20707;-67
2022/09/25 08:11:01;;;;;;;0.30;0.30;;;15.30;99.90;;;16.14;88.23;100265.69;5011448;28;20622;-67
2022/09/25 08:13:31;;;;;;;0.30;0.30;;;15.30;99.90;;;16.09;87.83;100259.25;5011571;28;20633;-66
2022/09/25 08:16:02;;;;;;;0.30;0.30;;;15.30;99.90;;;16.06;88.85;100267.44;5010943;28;20618;-67
2022/09/25 08:18:29;;;;;;;0.30;0.20;;;15.20;99.90;;;16.06;89.26;100267.44;5010888;28;20633;-69
2022/09/25 08:21:02;;;;;;;0.30;0.30;;;15.20;99.90;;;15.98;88.96;100268.22;5012422;28;21250;-67
2022/09/25 08:23:30;;;;;;;0.30;0.30;;;15.20;99.90;;;15.95;88.86;100270.34;5011807;28;20642;-67
2022/09/25 08:25:58;;;;;;;0.40;0.30;;;15.20;99.90;;;15.77;90.92;100267.72;5011110;28;21193;-67
2022/09/25 08:28:26;;;;;;;0.30;0.20;;;15.10;99.90;;;15.89;89.79;100266.50;5008815;28;20665;-66
2022/09/25 08:30:53;;;;;;;0.30;0.30;;;15.10;99.90;;;15.77;91.23;100264.25;5010908;28;20626;-67
2022/09/25 08:33:20;;;;;;;0.30;0.30;;;15.00;99.90;;;15.70;91.21;100265.84;4991661;28;20629;-65
2022/09/25 08:36:04;;;;;;;0.33;0.30;;;15.00;99.90;;;15.79;90.42;100264.94;5011093;28;20686;-67
2022/09/25 08:38:32;;;;;;;0.30;0.30;;;15.00;99.90;;;15.83;90.26;100258.38;4992566;28;20633;-67
2022/09/25 08:41:14;;;;;;;0.30;0.30;;;15.00;99.90;;;16.00;90.07;100262.78;4994610;28;20614;-67
2022/09/25 08:44:09;;;;;;;0.30;0.30;;;15.10;99.90;;;16.18;89.46;100260.97;4987147;28;20806;-67
2022/09/25 08:49:37;;;;;;;0.30;0.30;;;15.40;99.90;;;16.51;87.67;100246.19;4999646;28;21238;-66
2022/09/25 08:52:10;;;;;;;0.30;0.20;;;15.50;99.90;;;16.51;85.76;100262.81;4999049;28;20622;-66
2022/09/25 08:54:38;;;;;;;0.30;0.30;;;15.60;99.90;;;16.55;86.20;100253.63;4990785;28;21209;-66
2022/09/25 08:57:39;;;;;;;0.30;0.30;;;15.70;99.90;;;16.67;86.18;100252.38;5009388;28;20640;-66
2022/09/25 09:00:17;;;;;;;0.30;0.30;;;15.70;99.90;;;16.55;88.09;100247.50;5006835;28;21087;-67
2022/09/25 09:02:56;;;;;;;0.30;0.30;;;15.70;99.90;;;16.79;86.63;100248.47;5009532;28;21252;-67
2022/09/25 09:05:33;;;;;;;0.30;0.30;;;15.80;99.90;;;16.46;88.08;100258.97;5009425;28;20641;-66
2022/09/25 09:08:10;;;;;;;0.30;0.23;;;15.80;99.90;;;16.54;86.87;100254.63;4992832;28;20666;-67
2022/09/25 09:10:48;;;;;;;0.30;0.30;;;15.70;99.90;;;16.60;86.81;100261.06;5000189;28;21315;-66
2022/09/25 09:13:40;;;;;;;0.30;0.30;;;15.70;99.90;;;16.53;87.18;100255.59;4959437;28;20677;-66
2022/09/25 09:16:32;;;;;;;0.30;0.30;;;15.70;99.90;;;16.37;87.26;100260.75;4991992;28;21254;-66
2022/09/25 09:19:03;;;;;;;0.30;0.27;;;15.60;99.90;;;16.36;87.22;100268.78;5009346;28;20697;-66
2022/09/25 09:21:42;;;;;;;0.30;0.30;;;15.50;99.90;;;16.25;87.13;100254.06;4991875;28;20633;-68
2022/09/25 09:24:43;;;;;;;0.30;0.30;;;15.40;99.90;;;16.17;87.69;100264.56;4991314;28;20641;-63
2022/09/25 09:27:49;;;;;;;0.30;0.30;;;15.40;99.90;;;16.11;88.60;100271.28;5011389;28;20614;-66
2022/09/25 09:30:40;;;;;;;0.30;0.30;;;15.30;99.90;;;16.24;88.02;100268.22;5008248;28;20692;-65
2022/09/25 09:33:42;;;;;;;0.30;0.20;;;15.40;99.90;;;16.18;88.16;100268.84;4991984;28;20633;-65
2022/09/25 09:36:18;;;;;;;0.30;0.30;;;15.30;99.90;;;16.12;88.23;100269.47;4977800;28;21024;-66
2022/09/25 09:39:27;;;;;;;0.30;0.20;;;15.30;99.90;;;16.07;88.74;100266.47;5006620;28;20700;-65
2022/09/25 09:42:21;;;;;;;0.30;0.20;;;15.30;99.90;;;16.21;87.96;100263.25;4992718;28;21283;-66
2022/09/25 09:45:13;;;;;;;0.30;0.30;;;15.40;99.90;;;16.24;87.50;100266.44;5012651;28;20642;-63
2022/09/25 09:48:13;;;;;;;0.30;0.30;;;15.40;99.90;;;16.57;86.09;100256.91;5012995;28;20633;-66
2022/09/25 09:51:14;;;;;;;0.30;0.30;;;15.50;99.90;;;16.67;84.28;100257.66;4995954;28;20641;-66
2022/09/25 09:53:50;;;;;;;0.30;0.30;;;15.80;99.90;;;16.87;83.18;100261.66;5008275;28;20636;-66
2022/09/25 09:56:24;;;;;;;0.30;0.30;;;15.90;99.90;;;16.89;82.37;100256.22;4998733;28;20981;-67
2022/09/25 09:59:13;;;;;;;0.30;0.30;;;16.00;99.90;;;16.95;82.34;100256.41;5007852;28;20649;-66
2022/09/25 10:01:43;;;;;;;0.30;0.30;;;16.00;99.90;;;17.19;80.73;100257.47;5010514;28;20656;-65
2022/09/25 10:04:17;;;;;;;0.30;0.30;;;16.20;99.90;;;17.49;79.49;100256.84;5012607;28;21223;-66
2022/09/25 10:06:57;;;;;;;0.30;0.30;;;16.40;99.90;;;17.73;78.19;100263.03;5004521;28;20621;-66
2022/09/25 10:09:25;;;;;;;0.30;0.27;;;16.60;99.90;;;17.83;77.25;100254.91;4988316;28;20677;-67
2022/09/25 10:12:06;;;;;;;0.30;0.30;;;16.80;99.90;;;18.76;75.79;100258.72;5004569;28;20618;-67
2022/09/25 10:14:41;;;;;;;0.30;0.30;;;17.10;99.90;;;19.78;67.91;100254.78;5012510;28;20757;-68
2022/09/25 10:17:12;;;;;;;0.30;0.30;;;17.90;99.90;;;19.36;67.54;100249.16;5014636;28;20973;-67
2022/09/25 10:19:56;;;;;;;0.30;0.30;;;18.00;99.90;;;19.32;68.50;100251.28;4997187;28;20691;-67
2022/09/25 10:22:34;;;;;;;0.30;0.30;;;18.00;99.90;;;19.17;70.52;100244.28;5011412;28;20636;-66
2022/09/25 10:25:02;;;;;;;0.30;0.30;;;17.90;99.90;;;19.30;69.05;100241.88;4996083;28;20621;-66
2022/09/25 10:27:37;;;;;;;0.30;0.30;;;17.90;99.90;;;19.44;68.86;100235.06;5014228;28;20629;-67
2022/09/25 10:30:09;;;;;;;0.30;0.30;;;18.00;99.90;;;19.52;68.87;100243.75;5013538;28;21267;-66
2022/09/25 10:33:05;;;;;;;0.30;0.30;;;18.10;99.90;;;19.24;69.45;100248.72;5014605;28;20641;-67
2022/09/25 10:35:38;;;;;;;0.77;0.70;;;18.00;99.90;;;18.74;71.59;100252.78;5010975;28;20930;-67
2022/09/25 10:38:19;;;;;;;0.30;0.30;;;17.80;99.90;;;18.45;73.79;100243.63;5013380;28;20618;-67
2022/09/25 10:41:06;;;;;;;0.30;0.30;;;17.50;99.90;;;18.37;73.03;100250.72;5012859;28;20670;-67
2022/09/25 10:43:34;;;;;;;0.30;0.30;;;17.50;99.90;;;18.33;73.73;100252.88;5013819;28;20624;-67
2022/09/25 10:46:14;;;;;;;0.30;0.30;;;17.30;99.90;;;18.08;75.44;100247.81;4996707;28;20676;-68
2022/09/25 10:51:31;;;;;;;0.30;0.30;;;17.10;99.90;;;18.22;74.99;100247.97;5014406;28;20965;-67
2022/09/25 10:54:14;;;;;;;0.30;0.30;;;17.20;99.90;;;18.67;73.32;100246.53;5013664;28;20622;-67